sensor_id;sensor_type;location;lat;lon;timestamp;P1;durP1;ratioP1;P2;durP2;ratioP2
12906;SDS011;6521;50.498;8.474;2024-03-22T00:02:13;34.90;;;25.50;;
12906;SDS011;6521;50.498;8.474;2024-03-22T00:04:44;38.43;;;26.87;;
12906;SDS011;6521;50.498;8.474;2024-03-22T00:07:15;37.17;;;25.50;;
12906;SDS011;6521;50.498;8.474;2024-03-22T00:09:45;38.60;;;26.23;;
12906;SDS011;6521;50.498;8.474;2024-03-22T00:12:16;38.83;;;26.87;;
12906;SDS011;6521;50.498;8.474;2024-03-22T00:14:47;35.63;;;24.50;;
12906;SDS011;6521;50.498;8.474;2024-03-22T00:17:18;38.53;;;25.70;;
12906;SDS011;6521;50.498;8.474;2024-03-22T00:19:48;39.73;;;26.73;;
12906;SDS011;6521;50.498;8.474;2024-03-22T00:22:19;37.77;;;25.47;;
12906;SDS011;6521;50.498;8.474;2024-03-22T00:24:50;37.80;;;26.77;;
12906;SDS011;6521;50.498;8.474;2024-03-22T00:27:21;36.17;;;26.27;;
12906;SDS011;6521;50.498;8.474;2024-03-22T00:29:52;37.50;;;26.00;;
12906;SDS011;6521;50.498;8.474;2024-03-22T00:32:23;34.70;;;24.77;;
12906;SDS011;6521;50.498;8.474;2024-03-22T00:34:54;37.90;;;26.13;;
12906;SDS011;6521;50.498;8.474;2024-03-22T00:37:25;35.67;;;25.43;;
12906;SDS011;6521;50.498;8.474;2024-03-22T00:39:55;36.87;;;24.57;;
12906;SDS011;6521;50.498;8.474;2024-03-22T00:42:26;38.07;;;24.50;;
12906;SDS011;6521;50.498;8.474;2024-03-22T00:44:57;35.17;;;25.03;;
12906;SDS011;6521;50.498;8.474;2024-03-22T00:47:28;35.80;;;24.93;;
12906;SDS011;6521;50.498;8.474;2024-03-22T00:49:59;35.53;;;25.10;;
12906;SDS011;6521;50.498;8.474;2024-03-22T00:52:32;32.97;;;22.67;;
12906;SDS011;6521;50.498;8.474;2024-03-22T00:55:03;30.70;;;22.67;;
12906;SDS011;6521;50.498;8.474;2024-03-22T00:57:34;34.30;;;24.33;;
12906;SDS011;6521;50.498;8.474;2024-03-22T01:00:05;32.67;;;22.73;;
12906;SDS011;6521;50.498;8.474;2024-03-22T01:02:38;33.57;;;23.13;;
12906;SDS011;6521;50.498;8.474;2024-03-22T01:05:09;31.20;;;22.63;;
12906;SDS011;6521;50.498;8.474;2024-03-22T01:07:39;32.57;;;23.07;;
12906;SDS011;6521;50.498;8.474;2024-03-22T01:10:10;36.07;;;22.97;;
12906;SDS011;6521;50.498;8.474;2024-03-22T01:12:42;28.60;;;21.77;;
12906;SDS011;6521;50.498;8.474;2024-03-22T01:15:12;32.17;;;22.97;;
12906;SDS011;6521;50.498;8.474;2024-03-22T01:17:43;33.57;;;21.60;;
12906;SDS011;6521;50.498;8.474;2024-03-22T01:20:14;40.67;;;24.73;;
12906;SDS011;6521;50.498;8.474;2024-03-22T01:22:45;35.67;;;24.60;;
12906;SDS011;6521;50.498;8.474;2024-03-22T01:25:15;36.37;;;24.53;;
12906;SDS011;6521;50.498;8.474;2024-03-22T01:27:46;35.80;;;24.23;;
12906;SDS011;6521;50.498;8.474;2024-03-22T01:30:17;36.70;;;24.87;;
12906;SDS011;6521;50.498;8.474;2024-03-22T01:32:48;34.77;;;24.67;;
12906;SDS011;6521;50.498;8.474;2024-03-22T01:35:19;37.63;;;24.53;;
12906;SDS011;6521;50.498;8.474;2024-03-22T01:37:49;35.47;;;24.47;;
12906;SDS011;6521;50.498;8.474;2024-03-22T01:40:20;55.93;;;28.47;;
12906;SDS011;6521;50.498;8.474;2024-03-22T01:42:57;40.37;;;26.13;;
12906;SDS011;6521;50.498;8.474;2024-03-22T01:45:31;40.47;;;26.63;;
12906;SDS011;6521;50.498;8.474;2024-03-22T01:48:03;40.00;;;26.43;;
12906;SDS011;6521;50.498;8.474;2024-03-22T01:50:34;39.57;;;25.33;;
12906;SDS011;6521;50.498;8.474;2024-03-22T01:53:05;39.37;;;25.83;;
12906;SDS011;6521;50.498;8.474;2024-03-22T01:55:36;41.67;;;27.43;;
12906;SDS011;6521;50.498;8.474;2024-03-22T01:58:07;50.00;;;27.80;;
12906;SDS011;6521;50.498;8.474;2024-03-22T02:00:38;39.53;;;25.53;;
12906;SDS011;6521;50.498;8.474;2024-03-22T02:03:09;43.80;;;26.03;;
12906;SDS011;6521;50.498;8.474;2024-03-22T02:05:40;40.33;;;26.57;;
12906;SDS011;6521;50.498;8.474;2024-03-22T02:08:11;39.97;;;25.80;;
12906;SDS011;6521;50.498;8.474;2024-03-22T02:10:42;38.17;;;24.47;;
12906;SDS011;6521;50.498;8.474;2024-03-22T02:13:13;39.43;;;25.47;;
12906;SDS011;6521;50.498;8.474;2024-03-22T02:15:45;40.30;;;25.77;;
12906;SDS011;6521;50.498;8.474;2024-03-22T02:18:16;33.90;;;23.73;;
12906;SDS011;6521;50.498;8.474;2024-03-22T02:20:47;35.90;;;24.20;;
12906;SDS011;6521;50.498;8.474;2024-03-22T02:23:23;34.97;;;23.13;;
12906;SDS011;6521;50.498;8.474;2024-03-22T02:26:01;34.07;;;24.47;;
12906;SDS011;6521;50.498;8.474;2024-03-22T02:28:34;34.20;;;23.10;;
12906;SDS011;6521;50.498;8.474;2024-03-22T02:31:06;35.47;;;23.90;;
12906;SDS011;6521;50.498;8.474;2024-03-22T02:33:38;35.77;;;23.60;;
12906;SDS011;6521;50.498;8.474;2024-03-22T02:36:09;33.97;;;22.90;;
12906;SDS011;6521;50.498;8.474;2024-03-22T02:38:41;38.37;;;23.37;;
12906;SDS011;6521;50.498;8.474;2024-03-22T02:41:11;38.73;;;24.67;;
12906;SDS011;6521;50.498;8.474;2024-03-22T02:43:42;35.73;;;24.23;;
12906;SDS011;6521;50.498;8.474;2024-03-22T02:46:14;39.53;;;23.03;;
12906;SDS011;6521;50.498;8.474;2024-03-22T02:48:44;37.67;;;24.30;;
12906;SDS011;6521;50.498;8.474;2024-03-22T02:51:15;37.27;;;23.40;;
12906;SDS011;6521;50.498;8.474;2024-03-22T02:53:46;44.87;;;26.33;;
12906;SDS011;6521;50.498;8.474;2024-03-22T02:56:18;36.50;;;22.93;;
12906;SDS011;6521;50.498;8.474;2024-03-22T02:58:49;38.60;;;24.80;;
12906;SDS011;6521;50.498;8.474;2024-03-22T03:01:20;41.53;;;24.77;;
12906;SDS011;6521;50.498;8.474;2024-03-22T03:03:51;39.93;;;24.20;;
12906;SDS011;6521;50.498;8.474;2024-03-22T03:06:22;38.50;;;24.70;;
12906;SDS011;6521;50.498;8.474;2024-03-22T03:08:55;38.57;;;24.63;;
12906;SDS011;6521;50.498;8.474;2024-03-22T03:11:26;35.47;;;22.97;;
12906;SDS011;6521;50.498;8.474;2024-03-22T03:13:57;38.37;;;24.83;;
12906;SDS011;6521;50.498;8.474;2024-03-22T03:16:28;37.07;;;22.70;;
12906;SDS011;6521;50.498;8.474;2024-03-22T03:18:58;35.47;;;21.83;;
12906;SDS011;6521;50.498;8.474;2024-03-22T03:21:29;34.40;;;20.70;;
12906;SDS011;6521;50.498;8.474;2024-03-22T03:24:00;30.23;;;20.77;;
12906;SDS011;6521;50.498;8.474;2024-03-22T03:26:32;35.67;;;20.90;;
12906;SDS011;6521;50.498;8.474;2024-03-22T03:29:03;31.33;;;21.03;;
12906;SDS011;6521;50.498;8.474;2024-03-22T03:31:33;33.90;;;20.83;;
12906;SDS011;6521;50.498;8.474;2024-03-22T03:34:04;31.90;;;20.63;;
12906;SDS011;6521;50.498;8.474;2024-03-22T03:36:35;31.40;;;20.17;;
12906;SDS011;6521;50.498;8.474;2024-03-22T03:39:06;32.03;;;19.70;;
12906;SDS011;6521;50.498;8.474;2024-03-22T03:41:37;32.97;;;21.27;;
12906;SDS011;6521;50.498;8.474;2024-03-22T03:44:08;33.40;;;19.97;;
12906;SDS011;6521;50.498;8.474;2024-03-22T03:46:38;29.17;;;18.33;;
12906;SDS011;6521;50.498;8.474;2024-03-22T03:49:09;33.37;;;19.73;;
12906;SDS011;6521;50.498;8.474;2024-03-22T03:51:40;32.87;;;19.97;;
12906;SDS011;6521;50.498;8.474;2024-03-22T03:54:13;33.73;;;19.87;;
12906;SDS011;6521;50.498;8.474;2024-03-22T03:56:43;34.77;;;20.27;;
12906;SDS011;6521;50.498;8.474;2024-03-22T03:59:14;33.33;;;18.93;;
12906;SDS011;6521;50.498;8.474;2024-03-22T04:01:45;32.10;;;18.27;;
12906;SDS011;6521;50.498;8.474;2024-03-22T04:04:16;30.53;;;18.60;;
12906;SDS011;6521;50.498;8.474;2024-03-22T04:06:48;29.23;;;17.87;;
12906;SDS011;6521;50.498;8.474;2024-03-22T04:09:18;29.60;;;17.13;;
12906;SDS011;6521;50.498;8.474;2024-03-22T04:11:49;30.43;;;18.03;;
12906;SDS011;6521;50.498;8.474;2024-03-22T04:14:20;29.47;;;17.70;;
12906;SDS011;6521;50.498;8.474;2024-03-22T04:16:51;29.13;;;17.23;;
12906;SDS011;6521;50.498;8.474;2024-03-22T04:19:22;25.80;;;16.87;;
12906;SDS011;6521;50.498;8.474;2024-03-22T04:21:53;29.00;;;17.67;;
12906;SDS011;6521;50.498;8.474;2024-03-22T04:24:23;27.00;;;17.90;;
12906;SDS011;6521;50.498;8.474;2024-03-22T04:26:54;23.97;;;15.73;;
12906;SDS011;6521;50.498;8.474;2024-03-22T04:29:25;29.20;;;17.93;;
12906;SDS011;6521;50.498;8.474;2024-03-22T04:31:56;25.73;;;15.67;;
12906;SDS011;6521;50.498;8.474;2024-03-22T04:34:26;28.43;;;16.00;;
12906;SDS011;6521;50.498;8.474;2024-03-22T04:36:57;26.73;;;15.63;;
12906;SDS011;6521;50.498;8.474;2024-03-22T04:39:28;25.40;;;16.93;;
12906;SDS011;6521;50.498;8.474;2024-03-22T04:41:59;30.17;;;18.73;;
12906;SDS011;6521;50.498;8.474;2024-03-22T04:44:30;28.73;;;18.33;;
12906;SDS011;6521;50.498;8.474;2024-03-22T04:47:02;26.50;;;17.33;;
12906;SDS011;6521;50.498;8.474;2024-03-22T04:49:33;26.57;;;17.17;;
12906;SDS011;6521;50.498;8.474;2024-03-22T04:52:04;23.10;;;15.07;;
12906;SDS011;6521;50.498;8.474;2024-03-22T04:54:34;25.90;;;15.43;;
12906;SDS011;6521;50.498;8.474;2024-03-22T04:57:05;25.87;;;15.77;;
12906;SDS011;6521;50.498;8.474;2024-03-22T04:59:36;25.50;;;15.27;;
12906;SDS011;6521;50.498;8.474;2024-03-22T05:02:07;22.13;;;14.30;;
12906;SDS011;6521;50.498;8.474;2024-03-22T05:04:38;28.40;;;14.93;;
12906;SDS011;6521;50.498;8.474;2024-03-22T05:07:09;32.27;;;17.77;;
12906;SDS011;6521;50.498;8.474;2024-03-22T05:09:39;26.80;;;15.97;;
12906;SDS011;6521;50.498;8.474;2024-03-22T05:12:11;27.50;;;14.80;;
12906;SDS011;6521;50.498;8.474;2024-03-22T05:14:41;25.50;;;15.40;;
12906;SDS011;6521;50.498;8.474;2024-03-22T05:17:12;27.80;;;15.60;;
12906;SDS011;6521;50.498;8.474;2024-03-22T05:19:43;24.33;;;15.07;;
12906;SDS011;6521;50.498;8.474;2024-03-22T05:22:15;26.00;;;15.60;;
12906;SDS011;6521;50.498;8.474;2024-03-22T05:24:46;23.97;;;14.93;;
12906;SDS011;6521;50.498;8.474;2024-03-22T05:27:17;24.20;;;14.80;;
12906;SDS011;6521;50.498;8.474;2024-03-22T05:29:48;25.87;;;15.50;;
12906;SDS011;6521;50.498;8.474;2024-03-22T05:32:19;25.63;;;16.00;;
12906;SDS011;6521;50.498;8.474;2024-03-22T05:34:50;25.63;;;15.93;;
12906;SDS011;6521;50.498;8.474;2024-03-22T05:37:21;23.63;;;14.30;;
12906;SDS011;6521;50.498;8.474;2024-03-22T05:39:52;23.70;;;13.97;;
12906;SDS011;6521;50.498;8.474;2024-03-22T05:42:23;23.63;;;14.97;;
12906;SDS011;6521;50.498;8.474;2024-03-22T05:44:55;27.70;;;14.60;;
12906;SDS011;6521;50.498;8.474;2024-03-22T05:47:26;23.67;;;13.87;;
12906;SDS011;6521;50.498;8.474;2024-03-22T05:49:57;22.50;;;13.67;;
12906;SDS011;6521;50.498;8.474;2024-03-22T05:52:29;20.73;;;12.63;;
12906;SDS011;6521;50.498;8.474;2024-03-22T05:55:00;28.30;;;12.90;;
12906;SDS011;6521;50.498;8.474;2024-03-22T05:57:33;19.83;;;11.33;;
12906;SDS011;6521;50.498;8.474;2024-03-22T06:00:04;24.97;;;11.27;;
12906;SDS011;6521;50.498;8.474;2024-03-22T06:02:37;17.77;;;11.03;;
12906;SDS011;6521;50.498;8.474;2024-03-22T06:05:08;19.80;;;11.13;;
12906;SDS011;6521;50.498;8.474;2024-03-22T06:07:38;24.10;;;11.73;;
12906;SDS011;6521;50.498;8.474;2024-03-22T06:10:12;15.93;;;10.70;;
12906;SDS011;6521;50.498;8.474;2024-03-22T06:12:43;19.53;;;11.87;;
12906;SDS011;6521;50.498;8.474;2024-03-22T06:15:17;20.13;;;11.70;;
12906;SDS011;6521;50.498;8.474;2024-03-22T06:17:48;26.40;;;11.67;;
12906;SDS011;6521;50.498;8.474;2024-03-22T06:20:21;21.07;;;11.27;;
12906;SDS011;6521;50.498;8.474;2024-03-22T06:22:52;18.90;;;10.40;;
12906;SDS011;6521;50.498;8.474;2024-03-22T06:25:23;16.83;;;10.23;;
12906;SDS011;6521;50.498;8.474;2024-03-22T06:27:53;15.17;;;9.53;;
12906;SDS011;6521;50.498;8.474;2024-03-22T06:30:24;16.27;;;10.43;;
12906;SDS011;6521;50.498;8.474;2024-03-22T06:32:55;19.97;;;9.50;;
12906;SDS011;6521;50.498;8.474;2024-03-22T06:35:26;14.13;;;9.03;;
12906;SDS011;6521;50.498;8.474;2024-03-22T06:37:58;14.30;;;8.87;;
12906;SDS011;6521;50.498;8.474;2024-03-22T06:40:35;14.07;;;8.70;;
12906;SDS011;6521;50.498;8.474;2024-03-22T06:43:06;13.87;;;8.43;;
12906;SDS011;6521;50.498;8.474;2024-03-22T06:45:37;13.20;;;8.13;;
12906;SDS011;6521;50.498;8.474;2024-03-22T06:48:09;15.10;;;7.63;;
12906;SDS011;6521;50.498;8.474;2024-03-22T06:50:41;10.60;;;7.13;;
12906;SDS011;6521;50.498;8.474;2024-03-22T06:53:12;11.33;;;7.33;;
12906;SDS011;6521;50.498;8.474;2024-03-22T06:55:44;9.33;;;6.90;;
12906;SDS011;6521;50.498;8.474;2024-03-22T06:58:16;12.63;;;7.07;;
12906;SDS011;6521;50.498;8.474;2024-03-22T07:00:47;9.37;;;6.40;;
12906;SDS011;6521;50.498;8.474;2024-03-22T07:03:17;9.77;;;6.57;;
12906;SDS011;6521;50.498;8.474;2024-03-22T07:05:49;13.10;;;7.57;;
12906;SDS011;6521;50.498;8.474;2024-03-22T07:08:21;14.47;;;9.43;;
12906;SDS011;6521;50.498;8.474;2024-03-22T07:10:53;12.97;;;8.13;;
12906;SDS011;6521;50.498;8.474;2024-03-22T07:13:26;14.03;;;7.97;;
12906;SDS011;6521;50.498;8.474;2024-03-22T07:15:57;13.73;;;7.60;;
12906;SDS011;6521;50.498;8.474;2024-03-22T07:18:28;12.00;;;8.03;;
12906;SDS011;6521;50.498;8.474;2024-03-22T07:21:00;10.80;;;7.03;;
12906;SDS011;6521;50.498;8.474;2024-03-22T07:23:32;13.03;;;9.27;;
12906;SDS011;6521;50.498;8.474;2024-03-22T07:26:04;18.53;;;9.00;;
12906;SDS011;6521;50.498;8.474;2024-03-22T07:28:36;15.03;;;9.70;;
12906;SDS011;6521;50.498;8.474;2024-03-22T07:31:07;11.13;;;9.00;;
12906;SDS011;6521;50.498;8.474;2024-03-22T07:33:39;13.07;;;9.10;;
12906;SDS011;6521;50.498;8.474;2024-03-22T07:36:10;13.67;;;8.83;;
12906;SDS011;6521;50.498;8.474;2024-03-22T07:38:41;14.67;;;8.37;;
12906;SDS011;6521;50.498;8.474;2024-03-22T07:41:12;16.03;;;8.47;;
12906;SDS011;6521;50.498;8.474;2024-03-22T07:43:44;10.87;;;7.73;;
12906;SDS011;6521;50.498;8.474;2024-03-22T07:46:15;12.87;;;8.20;;
12906;SDS011;6521;50.498;8.474;2024-03-22T07:48:46;14.57;;;8.07;;
12906;SDS011;6521;50.498;8.474;2024-03-22T07:51:17;13.27;;;9.37;;
12906;SDS011;6521;50.498;8.474;2024-03-22T07:53:49;19.13;;;9.17;;
12906;SDS011;6521;50.498;8.474;2024-03-22T07:56:23;16.67;;;9.00;;
12906;SDS011;6521;50.498;8.474;2024-03-22T07:58:54;17.40;;;9.23;;
12906;SDS011;6521;50.498;8.474;2024-03-22T08:01:26;12.53;;;7.97;;
12906;SDS011;6521;50.498;8.474;2024-03-22T08:03:59;13.40;;;8.83;;
12906;SDS011;6521;50.498;8.474;2024-03-22T08:06:31;16.40;;;8.43;;
12906;SDS011;6521;50.498;8.474;2024-03-22T08:09:02;13.20;;;8.50;;
12906;SDS011;6521;50.498;8.474;2024-03-22T08:11:33;16.77;;;7.70;;
12906;SDS011;6521;50.498;8.474;2024-03-22T08:14:05;14.90;;;7.87;;
12906;SDS011;6521;50.498;8.474;2024-03-22T08:16:35;12.40;;;7.27;;
12906;SDS011;6521;50.498;8.474;2024-03-22T08:19:06;19.60;;;8.10;;
12906;SDS011;6521;50.498;8.474;2024-03-22T08:21:37;14.47;;;7.83;;
12906;SDS011;6521;50.498;8.474;2024-03-22T08:24:08;12.40;;;7.60;;
12906;SDS011;6521;50.498;8.474;2024-03-22T08:26:40;11.07;;;8.17;;
12906;SDS011;6521;50.498;8.474;2024-03-22T08:29:11;12.57;;;7.97;;
12906;SDS011;6521;50.498;8.474;2024-03-22T08:31:43;16.67;;;8.60;;
12906;SDS011;6521;50.498;8.474;2024-03-22T08:34:14;9.50;;;7.20;;
12906;SDS011;6521;50.498;8.474;2024-03-22T08:36:48;14.87;;;8.27;;
12906;SDS011;6521;50.498;8.474;2024-03-22T08:39:23;17.40;;;8.87;;
12906;SDS011;6521;50.498;8.474;2024-03-22T08:41:57;12.63;;;8.07;;
12906;SDS011;6521;50.498;8.474;2024-03-22T08:44:28;11.50;;;7.57;;
12906;SDS011;6521;50.498;8.474;2024-03-22T08:46:59;10.83;;;7.30;;
12906;SDS011;6521;50.498;8.474;2024-03-22T08:49:31;8.83;;;6.93;;
12906;SDS011;6521;50.498;8.474;2024-03-22T08:52:02;9.83;;;7.30;;
12906;SDS011;6521;50.498;8.474;2024-03-22T08:54:36;9.47;;;6.10;;
12906;SDS011;6521;50.498;8.474;2024-03-22T08:57:07;11.37;;;6.50;;
12906;SDS011;6521;50.498;8.474;2024-03-22T08:59:38;7.28;;;6.03;;
12906;SDS011;6521;50.498;8.474;2024-03-22T09:02:09;11.57;;;7.05;;
12906;SDS011;6521;50.498;8.474;2024-03-22T09:04:43;8.38;;;6.30;;
12906;SDS011;6521;50.498;8.474;2024-03-22T09:07:14;9.30;;;5.80;;
12906;SDS011;6521;50.498;8.474;2024-03-22T09:09:45;10.35;;;6.22;;
12906;SDS011;6521;50.498;8.474;2024-03-22T09:12:16;13.23;;;5.63;;
12906;SDS011;6521;50.498;8.474;2024-03-22T09:14:47;9.30;;;5.30;;
12906;SDS011;6521;50.498;8.474;2024-03-22T09:17:19;10.07;;;6.22;;
12906;SDS011;6521;50.498;8.474;2024-03-22T09:19:50;6.60;;;5.53;;
12906;SDS011;6521;50.498;8.474;2024-03-22T09:22:21;7.53;;;5.45;;
12906;SDS011;6521;50.498;8.474;2024-03-22T09:24:53;9.43;;;6.15;;
12906;SDS011;6521;50.498;8.474;2024-03-22T09:27:25;6.75;;;5.22;;
12906;SDS011;6521;50.498;8.474;2024-03-22T09:29:56;8.98;;;5.28;;
12906;SDS011;6521;50.498;8.474;2024-03-22T09:32:27;6.95;;;5.45;;
12906;SDS011;6521;50.498;8.474;2024-03-22T09:34:58;9.63;;;6.22;;
12906;SDS011;6521;50.498;8.474;2024-03-22T09:37:29;10.82;;;5.85;;
12906;SDS011;6521;50.498;8.474;2024-03-22T09:40:00;11.15;;;6.35;;
12906;SDS011;6521;50.498;8.474;2024-03-22T09:42:31;10.18;;;5.70;;
12906;SDS011;6521;50.498;8.474;2024-03-22T09:45:03;8.40;;;6.68;;
12906;SDS011;6521;50.498;8.474;2024-03-22T09:47:35;8.82;;;6.72;;
12906;SDS011;6521;50.498;8.474;2024-03-22T09:50:08;14.60;;;7.07;;
12906;SDS011;6521;50.498;8.474;2024-03-22T09:52:39;10.30;;;6.95;;
12906;SDS011;6521;50.498;8.474;2024-03-22T09:55:12;10.80;;;7.55;;
12906;SDS011;6521;50.498;8.474;2024-03-22T09:57:44;10.70;;;7.55;;
12906;SDS011;6521;50.498;8.474;2024-03-22T10:00:20;12.02;;;7.63;;
12906;SDS011;6521;50.498;8.474;2024-03-22T10:02:53;14.73;;;9.68;;
12906;SDS011;6521;50.498;8.474;2024-03-22T10:05:25;13.55;;;8.20;;
12906;SDS011;6521;50.498;8.474;2024-03-22T10:07:55;13.02;;;9.52;;
12906;SDS011;6521;50.498;8.474;2024-03-22T10:10:26;10.32;;;8.90;;
12906;SDS011;6521;50.498;8.474;2024-03-22T10:12:57;12.43;;;9.55;;
12906;SDS011;6521;50.498;8.474;2024-03-22T10:15:31;17.75;;;8.63;;
12906;SDS011;6521;50.498;8.474;2024-03-22T10:18:03;15.93;;;9.93;;
12906;SDS011;6521;50.498;8.474;2024-03-22T10:20:34;13.68;;;10.02;;
12906;SDS011;6521;50.498;8.474;2024-03-22T10:23:05;13.82;;;9.73;;
12906;SDS011;6521;50.498;8.474;2024-03-22T10:25:38;16.17;;;10.27;;
12906;SDS011;6521;50.498;8.474;2024-03-22T10:28:09;16.98;;;10.40;;
12906;SDS011;6521;50.498;8.474;2024-03-22T10:30:40;14.45;;;10.13;;
12906;SDS011;6521;50.498;8.474;2024-03-22T10:33:12;15.10;;;10.02;;
12906;SDS011;6521;50.498;8.474;2024-03-22T10:35:45;14.63;;;10.30;;
12906;SDS011;6521;50.498;8.474;2024-03-22T10:38:17;13.00;;;10.70;;
12906;SDS011;6521;50.498;8.474;2024-03-22T10:40:49;14.40;;;11.63;;
12906;SDS011;6521;50.498;8.474;2024-03-22T10:43:21;15.95;;;11.00;;
12906;SDS011;6521;50.498;8.474;2024-03-22T10:45:52;17.20;;;11.38;;
12906;SDS011;6521;50.498;8.474;2024-03-22T10:48:28;14.88;;;11.40;;
12906;SDS011;6521;50.498;8.474;2024-03-22T10:51:02;14.25;;;10.63;;
12906;SDS011;6521;50.498;8.474;2024-03-22T10:53:33;13.40;;;10.52;;
12906;SDS011;6521;50.498;8.474;2024-03-22T10:56:05;13.73;;;10.98;;
12906;SDS011;6521;50.498;8.474;2024-03-22T10:58:41;15.10;;;10.23;;
12906;SDS011;6521;50.498;8.474;2024-03-22T11:01:22;14.73;;;11.38;;
12906;SDS011;6521;50.498;8.474;2024-03-22T11:04:03;12.13;;;9.75;;
12906;SDS011;6521;50.498;8.474;2024-03-22T11:06:41;12.00;;;9.75;;
12906;SDS011;6521;50.498;8.474;2024-03-22T11:09:19;12.50;;;9.38;;
12906;SDS011;6521;50.498;8.474;2024-03-22T11:11:52;10.75;;;8.82;;
12906;SDS011;6521;50.498;8.474;2024-03-22T11:14:24;15.00;;;9.38;;
12906;SDS011;6521;50.498;8.474;2024-03-22T11:16:55;12.80;;;9.18;;
12906;SDS011;6521;50.498;8.474;2024-03-22T11:19:27;14.73;;;10.45;;
12906;SDS011;6521;50.498;8.474;2024-03-22T11:21:59;11.07;;;9.70;;
12906;SDS011;6521;50.498;8.474;2024-03-22T11:24:29;12.52;;;9.57;;
12906;SDS011;6521;50.498;8.474;2024-03-22T11:27:00;12.25;;;9.90;;
12906;SDS011;6521;50.498;8.474;2024-03-22T11:29:31;11.02;;;9.60;;
12906;SDS011;6521;50.498;8.474;2024-03-22T11:32:02;11.40;;;9.07;;
12906;SDS011;6521;50.498;8.474;2024-03-22T11:34:37;13.93;;;9.70;;
12906;SDS011;6521;50.498;8.474;2024-03-22T11:37:09;13.95;;;8.90;;
12906;SDS011;6521;50.498;8.474;2024-03-22T11:39:41;14.25;;;9.20;;
12906;SDS011;6521;50.498;8.474;2024-03-22T11:42:13;12.27;;;8.73;;
12906;SDS011;6521;50.498;8.474;2024-03-22T11:44:49;20.02;;;9.57;;
12906;SDS011;6521;50.498;8.474;2024-03-22T11:47:20;10.63;;;8.32;;
12906;SDS011;6521;50.498;8.474;2024-03-22T11:49:51;14.70;;;8.90;;
12906;SDS011;6521;50.498;8.474;2024-03-22T11:52:25;17.67;;;8.65;;
12906;SDS011;6521;50.498;8.474;2024-03-22T11:54:57;10.63;;;7.93;;
12906;SDS011;6521;50.498;8.474;2024-03-22T11:57:29;12.60;;;8.27;;
12906;SDS011;6521;50.498;8.474;2024-03-22T12:00:01;16.33;;;8.50;;
12906;SDS011;6521;50.498;8.474;2024-03-22T12:02:54;13.80;;;9.10;;
12906;SDS011;6521;50.498;8.474;2024-03-22T12:05:25;13.52;;;9.18;;
12906;SDS011;6521;50.498;8.474;2024-03-22T12:07:57;14.85;;;8.27;;
12906;SDS011;6521;50.498;8.474;2024-03-22T12:10:28;9.73;;;7.43;;
12906;SDS011;6521;50.498;8.474;2024-03-22T12:13:01;10.10;;;7.35;;
12906;SDS011;6521;50.498;8.474;2024-03-22T12:15:33;7.97;;;6.57;;
12906;SDS011;6521;50.498;8.474;2024-03-22T12:18:04;11.60;;;6.95;;
12906;SDS011;6521;50.498;8.474;2024-03-22T12:20:35;11.10;;;8.38;;
12906;SDS011;6521;50.498;8.474;2024-03-22T12:23:05;8.75;;;7.90;;
12906;SDS011;6521;50.498;8.474;2024-03-22T12:25:36;11.00;;;7.90;;
12906;SDS011;6521;50.498;8.474;2024-03-22T12:28:07;10.98;;;7.80;;
12906;SDS011;6521;50.498;8.474;2024-03-22T12:30:38;9.82;;;7.43;;
12906;SDS011;6521;50.498;8.474;2024-03-22T12:33:09;9.93;;;7.55;;
12906;SDS011;6521;50.498;8.474;2024-03-22T12:35:43;14.27;;;9.05;;
12906;SDS011;6521;50.498;8.474;2024-03-22T12:38:13;10.85;;;7.88;;
12906;SDS011;6521;50.498;8.474;2024-03-22T12:40:44;10.45;;;7.82;;
12906;SDS011;6521;50.498;8.474;2024-03-22T12:43:16;9.50;;;7.30;;
12906;SDS011;6521;50.498;8.474;2024-03-22T12:45:47;10.93;;;7.22;;
12906;SDS011;6521;50.498;8.474;2024-03-22T12:48:18;9.63;;;7.43;;
12906;SDS011;6521;50.498;8.474;2024-03-22T12:50:49;17.70;;;8.27;;
12906;SDS011;6521;50.498;8.474;2024-03-22T12:53:21;12.20;;;7.88;;
12906;SDS011;6521;50.498;8.474;2024-03-22T12:55:52;12.15;;;7.80;;
12906;SDS011;6521;50.498;8.474;2024-03-22T12:58:23;12.00;;;9.20;;
12906;SDS011;6521;50.498;8.474;2024-03-22T13:00:58;10.38;;;7.65;;
12906;SDS011;6521;50.498;8.474;2024-03-22T13:03:34;13.27;;;7.88;;
12906;SDS011;6521;50.498;8.474;2024-03-22T13:06:05;11.70;;;8.18;;
12906;SDS011;6521;50.498;8.474;2024-03-22T13:08:36;9.77;;;6.68;;
12906;SDS011;6521;50.498;8.474;2024-03-22T13:11:07;10.57;;;6.97;;
12906;SDS011;6521;50.498;8.474;2024-03-22T13:13:41;10.70;;;6.82;;
12906;SDS011;6521;50.498;8.474;2024-03-22T13:16:12;10.23;;;7.38;;
12906;SDS011;6521;50.498;8.474;2024-03-22T13:18:45;10.63;;;6.78;;
12906;SDS011;6521;50.498;8.474;2024-03-22T13:21:17;12.98;;;6.90;;
12906;SDS011;6521;50.498;8.474;2024-03-22T13:23:48;11.45;;;6.70;;
12906;SDS011;6521;50.498;8.474;2024-03-22T13:26:18;9.43;;;6.70;;
12906;SDS011;6521;50.498;8.474;2024-03-22T13:28:50;9.55;;;8.50;;
12906;SDS011;6521;50.498;8.474;2024-03-22T13:31:22;10.48;;;7.63;;
12906;SDS011;6521;50.498;8.474;2024-03-22T13:33:53;10.07;;;6.80;;
12906;SDS011;6521;50.498;8.474;2024-03-22T13:36:25;11.48;;;6.93;;
12906;SDS011;6521;50.498;8.474;2024-03-22T13:38:56;10.43;;;6.75;;
12906;SDS011;6521;50.498;8.474;2024-03-22T13:41:27;9.27;;;6.55;;
12906;SDS011;6521;50.498;8.474;2024-03-22T13:43:58;9.90;;;6.15;;
12906;SDS011;6521;50.498;8.474;2024-03-22T13:46:34;11.20;;;7.07;;
12906;SDS011;6521;50.498;8.474;2024-03-22T13:49:15;8.70;;;6.90;;
12906;SDS011;6521;50.498;8.474;2024-03-22T13:51:47;10.18;;;8.73;;
12906;SDS011;6521;50.498;8.474;2024-03-22T13:54:18;13.15;;;7.63;;
12906;SDS011;6521;50.498;8.474;2024-03-22T13:56:49;9.05;;;7.10;;
12906;SDS011;6521;50.498;8.474;2024-03-22T13:59:21;8.38;;;6.40;;
12906;SDS011;6521;50.498;8.474;2024-03-22T14:01:52;12.02;;;7.95;;
12906;SDS011;6521;50.498;8.474;2024-03-22T14:04:23;9.23;;;7.40;;
12906;SDS011;6521;50.498;8.474;2024-03-22T14:06:57;13.73;;;7.82;;
12906;SDS011;6521;50.498;8.474;2024-03-22T14:09:27;14.02;;;7.82;;
12906;SDS011;6521;50.498;8.474;2024-03-22T14:11:59;17.05;;;8.15;;
12906;SDS011;6521;50.498;8.474;2024-03-22T14:14:30;15.68;;;8.07;;
12906;SDS011;6521;50.498;8.474;2024-03-22T14:17:01;20.92;;;8.10;;
12906;SDS011;6521;50.498;8.474;2024-03-22T14:19:31;9.60;;;8.00;;
12906;SDS011;6521;50.498;8.474;2024-03-22T14:22:03;11.25;;;9.20;;
12906;SDS011;6521;50.498;8.474;2024-03-22T14:24:34;11.25;;;8.52;;
12906;SDS011;6521;50.498;8.474;2024-03-22T14:27:05;12.63;;;7.68;;
12906;SDS011;6521;50.498;8.474;2024-03-22T14:29:36;13.57;;;8.15;;
12906;SDS011;6521;50.498;8.474;2024-03-22T14:32:07;12.98;;;7.88;;
12906;SDS011;6521;50.498;8.474;2024-03-22T14:34:40;13.45;;;9.13;;
12906;SDS011;6521;50.498;8.474;2024-03-22T14:37:13;9.88;;;7.47;;
12906;SDS011;6521;50.498;8.474;2024-03-22T14:39:44;9.25;;;7.25;;
12906;SDS011;6521;50.498;8.474;2024-03-22T14:42:15;7.88;;;7.07;;
12906;SDS011;6521;50.498;8.474;2024-03-22T14:44:46;9.38;;;6.55;;
12906;SDS011;6521;50.498;8.474;2024-03-22T14:47:17;10.32;;;6.78;;
12906;SDS011;6521;50.498;8.474;2024-03-22T14:49:49;11.75;;;6.72;;
12906;SDS011;6521;50.498;8.474;2024-03-22T14:52:21;6.90;;;5.65;;
12906;SDS011;6521;50.498;8.474;2024-03-22T14:54:52;5.95;;;4.00;;
12906;SDS011;6521;50.498;8.474;2024-03-22T14:57:23;6.60;;;4.05;;
12906;SDS011;6521;50.498;8.474;2024-03-22T14:59:55;5.20;;;4.18;;
12906;SDS011;6521;50.498;8.474;2024-03-22T15:02:27;9.95;;;4.93;;
12906;SDS011;6521;50.498;8.474;2024-03-22T15:04:58;10.98;;;4.90;;
12906;SDS011;6521;50.498;8.474;2024-03-22T15:07:30;7.72;;;5.50;;
12906;SDS011;6521;50.498;8.474;2024-03-22T15:10:01;14.27;;;5.38;;